Time;durP1;ratioP1;P1;durP2;ratioP2;P2;SDS_P1;SDS_P2;PMS_P1;PMS_P2;Temp;Humidity;BMP_temperature;BMP_pressure;BME280_temperature;BME280_humidity;BME280_pressure;Samples;Min_cycle;Max_cycle;Signal;HPM_P1;HPM_P2
2023/08/26 00:00:24;;;;;;;5.43;4.60;;;20.10;99.90;;;19.84;87.04;100102.75;5036533;28;20214;-75
2023/08/26 00:02:56;;;;;;;6.40;4.27;;;20.10;99.90;;;19.79;86.81;100095.31;5036425;28;20231;-75
2023/08/26 00:05:28;;;;;;;7.60;4.93;;;20.00;99.90;;;19.79;87.85;100089.06;5036476;28;20218;-75
2023/08/26 00:08:00;;;;;;;5.57;4.37;;;20.00;99.90;;;19.74;87.24;100087.88;5036087;28;20602;-75
2023/08/26 00:10:33;;;;;;;5.10;4.60;;;20.00;99.90;;;19.71;87.10;100087.50;5036346;28;20226;-75
2023/08/26 00:13:05;;;;;;;6.33;4.30;;;19.90;99.90;;;19.65;87.88;100075.72;5036158;28;20298;-75
2023/08/26 00:15:37;;;;;;;5.13;4.27;;;19.80;99.90;;;19.68;87.29;100082.56;5035936;28;20653;-75
2023/08/26 00:18:11;;;;;;;5.37;4.63;;;19.90;99.90;;;19.66;88.00;100085.50;5035893;28;20649;-75
2023/08/26 00:20:43;;;;;;;5.10;4.30;;;19.90;99.90;;;19.64;87.64;100086.78;5035859;28;20557;-75
2023/08/26 00:23:15;;;;;;;6.93;4.97;;;19.90;99.90;;;19.62;87.86;100084.31;5035951;28;20273;-75
2023/08/26 00:25:48;;;;;;;5.60;5.10;;;19.90;99.90;;;19.64;87.69;100082.19;5036040;28;20275;-75
2023/08/26 00:28:20;;;;;;;4.77;4.10;;;19.90;99.90;;;19.62;87.90;100078.88;5036044;28;20195;-75
2023/08/26 00:31:02;;;;;;;7.13;5.13;;;19.90;99.90;;;19.57;88.06;100077.94;5035240;28;20290;-75
2023/08/26 00:33:34;;;;;;;7.93;4.57;;;19.80;99.90;;;19.58;88.22;100088.56;5035801;28;20257;-75
2023/08/26 00:36:06;;;;;;;5.10;4.47;;;19.80;99.90;;;19.57;88.48;100080.66;5035912;28;20214;-75
2023/08/26 00:38:38;;;;;;;6.33;4.70;;;19.80;99.90;;;19.58;87.60;100072.28;5035852;28;20286;-75
2023/08/26 00:41:11;;;;;;;8.93;4.60;;;19.90;99.90;;;19.55;88.32;100078.19;5036360;28;20241;-75
2023/08/26 00:43:43;;;;;;;6.50;4.53;;;19.80;99.90;;;19.54;87.81;100084.66;5035676;28;20227;-75
2023/08/26 00:46:15;;;;;;;6.10;5.40;;;19.80;99.90;;;19.51;87.35;100082.44;5035497;28;20218;-75
2023/08/26 00:48:46;;;;;;;6.40;5.10;;;19.80;99.90;;;19.46;88.31;100079.56;5035898;28;20219;-75
2023/08/26 00:51:19;;;;;;;5.63;5.10;;;19.70;99.90;;;19.44;88.02;100081.72;5035811;28;20194;-75
2023/08/26 00:53:53;;;;;;;6.07;5.47;;;19.70;99.90;;;19.33;88.18;100087.91;5035647;28;20235;-75
2023/08/26 00:56:27;;;;;;;7.00;4.90;;;19.50;99.90;;;19.37;87.87;100088.25;5035651;28;20191;-75
2023/08/26 00:58:58;;;;;;;5.77;4.67;;;19.60;99.90;;;19.43;87.79;100090.06;5036108;28;20253;-74
2023/08/26 01:01:32;;;;;;;6.43;5.13;;;19.70;99.90;;;19.41;87.51;100094.91;5036201;28;20187;-75
2023/08/26 01:04:05;;;;;;;6.57;5.17;;;19.70;99.90;;;19.42;87.53;100085.72;5035285;28;20280;-75
2023/08/26 01:06:37;;;;;;;5.53;5.03;;;19.70;99.90;;;19.43;87.26;100077.31;5035302;28;20249;-75
2023/08/26 01:09:09;;;;;;;6.27;4.83;;;19.70;99.90;;;19.36;87.28;100090.16;5035239;28;20274;-75
2023/08/26 01:11:58;;;;;;;6.60;6.00;;;19.60;99.90;;;19.34;88.09;100070.56;5035225;28;20240;-75
2023/08/26 01:14:39;;;;;;;8.40;5.60;;;19.50;99.90;;;19.37;87.96;100061.13;5035012;28;20377;-75
2023/08/26 01:17:12;;;;;;;6.00;5.40;;;19.60;99.90;;;19.34;87.88;100065.13;5035122;28;20195;-75
2023/08/26 01:19:46;;;;;;;5.73;5.10;;;19.60;99.90;;;19.35;87.65;100061.34;5035110;28;20290;-75
2023/08/26 01:22:24;;;;;;;7.40;5.50;;;19.70;99.90;;;19.38;87.67;100066.34;5035025;28;20221;-75
2023/08/26 01:24:58;;;;;;;5.53;5.03;;;19.60;99.90;;;19.38;87.67;100063.63;5034908;28;20250;-75
2023/08/26 01:27:29;;;;;;;8.63;5.17;;;19.60;99.90;;;19.33;87.78;100068.91;5034651;28;20242;-75
2023/08/26 01:30:03;;;;;;;8.50;5.40;;;19.60;99.90;;;19.33;88.09;100063.47;5034855;28;20245;-75
2023/08/26 01:32:47;;;;;;;6.37;5.27;;;19.60;99.90;;;19.26;88.03;100068.19;5034827;28;20198;-75
2023/08/26 01:35:29;;;;;;;6.73;5.77;;;19.50;99.90;;;19.21;88.00;100071.59;5034780;28;20213;-75
2023/08/26 01:38:03;;;;;;;9.30;5.63;;;19.50;99.90;;;19.19;88.58;100078.31;5034754;28;20194;-76
2023/08/26 01:40:41;;;;;;;6.67;5.90;;;19.40;99.90;;;19.16;89.08;100086.91;5034369;28;20197;-76
2023/08/26 01:43:14;;;;;;;6.63;6.03;;;19.40;99.90;;;19.11;89.11;100079.47;5033597;28;20309;-76
2023/08/26 01:45:45;;;;;;;6.97;6.07;;;19.40;99.90;;;19.12;89.02;100077.56;5034426;28;20198;-76
2023/08/26 01:48:17;;;;;;;8.10;6.20;;;19.40;99.90;;;19.12;89.12;100083.84;5034154;28;20633;-76
2023/08/26 01:50:49;;;;;;;6.90;6.20;;;19.40;99.90;;;19.10;89.34;100082.44;5034476;28;20250;-76
2023/08/26 01:53:21;;;;;;;7.87;6.53;;;19.40;99.90;;;19.09;89.33;100075.34;5034944;28;20318;-76
2023/08/26 01:55:54;;;;;;;11.63;7.63;;;19.40;99.90;;;19.09;90.41;100072.63;5034030;28;20628;-76
2023/08/26 01:58:26;;;;;;;9.27;6.90;;;19.30;99.90;;;19.09;89.38;100073.44;5034347;28;20195;-76
2023/08/26 02:00:58;;;;;;;8.60;6.47;;;19.40;99.90;;;19.10;89.45;100075.13;5034231;28;20580;-76
2023/08/26 02:03:30;;;;;;;7.93;6.90;;;19.40;99.90;;;19.09;88.56;100070.75;5034154;28;20305;-76
2023/08/26 02:06:02;;;;;;;8.63;7.67;;;19.40;99.90;;;19.07;88.32;100063.91;5034190;28;20191;-76
2023/08/26 02:08:34;;;;;;;8.07;7.37;;;19.40;99.90;;;19.10;88.53;100072.41;5034132;28;20274;-76
2023/08/26 02:11:08;;;;;;;10.37;8.00;;;19.40;99.90;;;19.10;90.16;100079.72;5034113;28;20229;-76
2023/08/26 02:13:40;;;;;;;7.60;6.90;;;19.40;99.90;;;19.06;89.22;100078.50;5033942;28;20329;-76
2023/08/26 02:16:12;;;;;;;8.83;7.40;;;19.40;99.90;;;19.01;89.11;100075.66;5034045;28;20207;-76
2023/08/26 02:18:45;;;;;;;8.63;7.60;;;19.30;99.90;;;18.96;88.70;100073.66;5033965;28;20191;-76
2023/08/26 02:21:16;;;;;;;10.23;8.00;;;19.20;99.90;;;18.97;90.68;100066.34;5033906;28;20191;-75
2023/08/26 02:23:48;;;;;;;9.20;7.50;;;19.20;99.90;;;18.97;90.14;100059.00;5033799;28;20309;-75
2023/08/26 02:26:21;;;;;;;10.60;8.00;;;19.20;99.90;;;18.94;89.94;100061.38;5033904;28;20233;-75
2023/08/26 02:28:55;;;;;;;10.43;9.40;;;19.20;99.90;;;18.95;90.00;100071.16;5033602;28;20193;-75
2023/08/26 02:31:27;;;;;;;11.77;10.10;;;19.20;99.90;;;18.97;90.08;100079.91;5033542;28;20653;-75
2023/08/26 02:33:59;;;;;;;14.10;10.03;;;19.20;99.90;;;18.98;90.64;100089.69;5033604;28;20234;-75
2023/08/26 02:36:31;;;;;;;11.90;10.33;;;19.30;99.90;;;18.98;90.91;100084.25;5033742;28;20281;-75
2023/08/26 02:39:03;;;;;;;13.13;10.50;;;19.30;99.90;;;18.97;90.64;100074.50;5033655;28;20203;-75
2023/08/26 02:41:36;;;;;;;11.83;10.43;;;19.30;99.90;;;18.97;91.57;100083.44;5033829;28;20331;-75
2023/08/26 02:44:08;;;;;;;12.77;10.33;;;19.30;99.90;;;18.95;91.57;100077.41;5033688;28;20223;-75
2023/08/26 02:46:41;;;;;;;12.90;11.57;;;19.30;99.90;;;18.93;91.69;100068.69;5033192;28;20223;-66
2023/08/26 02:49:13;;;;;;;13.13;11.83;;;19.20;99.90;;;18.93;92.07;100067.88;5033437;28;20277;-77
2023/08/26 02:51:45;;;;;;;12.50;10.87;;;19.20;99.90;;;18.95;91.99;100065.72;5033534;28;20215;-77
2023/08/26 02:54:17;;;;;;;13.33;11.00;;;19.30;99.90;;;18.94;91.74;100083.88;5032913;28;20321;-77
2023/08/26 02:56:51;;;;;;;12.97;11.70;;;19.20;99.90;;;18.92;91.15;100079.75;5033172;28;20645;-76
2023/08/26 02:59:23;;;;;;;15.13;13.00;;;19.30;99.90;;;18.92;92.30;100082.47;5033527;28;20191;-76
2023/08/26 03:02:01;;;;;;;14.10;12.70;;;19.20;99.90;;;18.87;91.61;100091.28;5033310;28;20191;-76
2023/08/26 03:04:33;;;;;;;13.80;12.30;;;19.10;99.90;;;18.81;92.02;100102.22;5032989;28;20317;-76
2023/08/26 03:07:05;;;;;;;15.70;13.37;;;19.10;99.90;;;18.84;92.78;100094.47;5033385;28;20248;-76
2023/08/26 03:09:36;;;;;;;17.13;14.30;;;19.10;99.90;;;18.85;93.52;100098.00;5033285;28;20213;-76
2023/08/26 03:12:11;;;;;;;20.10;15.70;;;19.10;99.90;;;18.84;93.70;100099.06;5033586;28;20201;-76
2023/08/26 03:14:43;;;;;;;20.27;16.23;;;19.20;99.90;;;18.83;94.22;100100.97;5033227;28;20315;-76
2023/08/26 03:17:15;;;;;;;18.70;15.83;;;19.20;99.90;;;18.70;95.72;100107.38;5033271;28;20357;-76
2023/08/26 03:19:46;;;;;;;19.83;17.73;;;19.10;99.90;;;18.63;96.06;100098.50;5033285;28;20307;-76
2023/08/26 03:22:18;;;;;;;23.03;18.20;;;19.00;99.90;;;18.65;96.52;100093.69;5033229;28;20282;-77
2023/08/26 03:24:51;;;;;;;21.20;18.00;;;19.00;99.90;;;18.69;96.34;100089.47;5033147;28;20318;-77
2023/08/26 03:27:24;;;;;;;21.43;19.23;;;19.10;99.90;;;18.67;96.26;100091.56;5033214;28;20261;-77
2023/08/26 03:29:56;;;;;;;26.13;21.17;;;19.10;99.90;;;18.70;95.96;100096.53;5033981;28;20385;-77
2023/08/26 03:32:30;;;;;;;21.00;18.50;;;19.00;99.90;;;18.72;95.52;100091.72;5033144;28;20187;-76
2023/08/26 03:35:02;;;;;;;20.63;18.30;;;19.10;99.90;;;18.74;95.22;100086.88;5033077;28;20234;-76
2023/08/26 03:37:34;;;;;;;22.97;20.00;;;19.10;99.90;;;18.77;95.20;100101.84;5032962;28;20640;-76
2023/08/26 03:40:09;;;;;;;26.37;21.97;;;19.10;99.90;;;18.74;95.76;100103.16;5033125;28;20286;-76
2023/08/26 03:42:44;;;;;;;29.07;22.93;;;19.10;99.90;;;18.74;96.10;100108.56;5033342;28;20190;-76
2023/08/26 03:45:16;;;;;;;25.97;23.17;;;19.10;99.90;;;18.72;95.99;100108.00;5033235;28;20229;-76
2023/08/26 03:47:48;;;;;;;23.93;21.10;;;19.10;99.90;;;18.76;95.73;100115.66;5034399;28;20298;-76
2023/08/26 03:50:20;;;;;;;24.77;20.97;;;19.10;99.90;;;18.73;95.43;100111.53;5033587;28;20261;-76
2023/08/26 03:52:52;;;;;;;27.80;23.83;;;19.10;99.90;;;18.74;95.61;100111.28;5032895;28;20201;-77
2023/08/26 03:55:24;;;;;;;28.73;25.73;;;19.20;99.90;;;18.72;95.82;100109.88;5032540;28;20658;-76
2023/08/26 03:57:57;;;;;;;27.73;24.93;;;19.10;99.90;;;18.72;96.23;100118.84;5032910;28;20278;-76
2023/08/26 04:00:29;;;;;;;35.23;28.17;;;19.20;99.90;;;18.64;96.81;100116.44;5032847;28;20285;-77
2023/08/26 04:03:01;;;;;;;31.93;28.03;;;19.10;99.90;;;18.67;96.45;100104.28;5032838;28;20191;-77
2023/08/26 04:05:33;;;;;;;32.67;29.13;;;19.00;99.90;;;18.62;97.17;100115.84;5033209;28;20653;-76
2023/08/26 04:08:06;;;;;;;33.83;30.13;;;19.00;99.90;;;18.59;97.57;100116.28;5036424;28;20273;-76
2023/08/26 04:10:38;;;;;;;36.87;31.53;;;19.00;99.90;;;18.59;97.77;100118.19;5036383;28;20195;-77
2023/08/26 04:13:26;;;;;;;36.33;31.37;;;19.00;99.90;;;18.58;97.73;100122.75;5036275;28;20231;-76
2023/08/26 04:16:03;;;;;;;38.37;30.77;;;19.00;99.90;;;18.56;97.92;100126.75;5036241;28;20227;-76
2023/08/26 04:18:34;;;;;;;39.80;32.90;;;19.00;99.90;;;18.55;97.82;100123.22;5035920;28;20194;-77
2023/08/26 04:21:07;;;;;;;39.63;33.93;;;19.00;99.90;;;18.55;98.09;100130.53;5036218;28;20294;-77
2023/08/26 04:23:39;;;;;;;43.83;35.33;;;18.90;99.90;;;18.55;98.27;100135.94;5036103;28;20322;-77
2023/08/26 04:26:11;;;;;;;42.27;35.30;;;19.00;99.90;;;18.52;98.51;100134.53;5035805;28;20720;-77
2023/08/26 04:28:44;;;;;;;41.70;36.33;;;18.90;99.90;;;18.54;98.56;100143.25;5036087;28;20245;-77
2023/08/26 04:31:16;;;;;;;41.33;35.50;;;19.00;99.90;;;18.55;99.07;100150.34;5036022;28;20226;-77
2023/08/26 04:33:48;;;;;;;39.33;34.37;;;19.00;99.90;;;18.54;98.75;100147.84;5035619;28;20227;-77
2023/08/26 04:36:20;;;;;;;39.80;34.03;;;19.00;99.90;;;18.54;98.56;100153.25;5036045;28;20221;-77
2023/08/26 04:38:52;;;;;;;40.93;35.53;;;19.00;99.90;;;18.53;98.75;100160.56;5035859;28;20269;-77
2023/08/26 04:41:24;;;;;;;38.07;33.20;;;18.90;99.90;;;18.54;98.92;100151.38;5035770;28;20260;-77
2023/08/26 04:43:59;;;;;;;41.70;35.33;;;19.00;99.90;;;18.54;98.67;100155.97;5035794;28;20333;-77
2023/08/26 04:46:31;;;;;;;39.90;35.27;;;18.90;99.90;;;18.53;98.33;100160.56;5035244;28;20305;-77
2023/08/26 04:49:04;;;;;;;39.53;34.40;;;19.00;99.90;;;18.55;98.50;100153.03;5035703;28;20242;-77
2023/08/26 04:51:38;;;;;;;42.70;35.37;;;19.00;99.90;;;18.57;98.36;100158.22;5035641;28;20223;-77
2023/08/26 04:54:10;;;;;;;43.40;35.60;;;19.00;99.90;;;18.57;98.11;100160.94;5035461;28;20643;-77
2023/08/26 04:56:42;;;;;;;43.97;35.57;;;19.00;99.90;;;18.56;98.19;100162.81;5035231;28;20758;-77
2023/08/26 04:59:15;;;;;;;39.77;33.57;;;19.00;99.90;;;18.55;98.34;100161.19;5035749;28;20274;-77
2023/08/26 05:01:47;;;;;;;44.37;34.83;;;19.00;99.90;;;18.53;98.94;100165.16;5035456;28;20244;-77
2023/08/26 05:04:19;;;;;;;40.83;34.40;;;18.90;99.90;;;18.55;98.40;100155.75;5035353;28;20231;-77
2023/08/26 05:06:51;;;;;;;42.37;35.37;;;19.00;99.90;;;18.57;98.33;100163.66;5035698;28;20191;-76
2023/08/26 05:09:23;;;;;;;43.83;35.07;;;19.00;99.90;;;18.56;98.33;100162.81;5035280;28;20287;-76
2023/08/26 05:11:57;;;;;;;38.10;34.00;;;19.00;99.90;;;18.55;98.60;100169.31;5034966;28;20271;-76
2023/08/26 05:14:30;;;;;;;38.83;34.17;;;19.00;99.90;;;18.54;98.46;100170.34;5035129;28;20226;-76
2023/08/26 05:17:02;;;;;;;43.50;35.63;;;18.90;99.90;;;18.55;98.01;100172.03;5034829;28;20238;-77
2023/08/26 05:19:33;;;;;;;40.37;34.73;;;19.00;99.90;;;18.53;97.78;100174.09;5035081;28;20215;-76
2023/08/26 05:22:06;;;;;;;36.67;31.90;;;18.90;99.90;;;18.57;97.89;100175.31;5035020;28;20195;-76
2023/08/26 05:24:38;;;;;;;39.83;35.57;;;19.00;99.90;;;18.55;97.50;100174.72;5034953;28;20284;-77
2023/08/26 05:27:10;;;;;;;44.63;36.20;;;19.00;99.90;;;18.58;97.77;100182.41;5034973;28;20286;-76
2023/08/26 05:29:44;;;;;;;40.70;34.63;;;19.00;99.90;;;18.58;97.17;100182.41;5034787;28;20233;-76
2023/08/26 05:32:15;;;;;;;41.00;36.00;;;19.00;99.90;;;18.54;97.37;100189.34;5034899;28;20226;-76
2023/08/26 05:34:47;;;;;;;40.40;35.33;;;19.00;99.90;;;18.55;97.59;100196.41;5034885;28;20226;-76
2023/08/26 05:37:19;;;;;;;41.07;35.10;;;18.90;99.90;;;18.58;97.38;100178.88;5034949;28;20285;-77
2023/08/26 05:39:51;;;;;;;40.77;34.93;;;19.00;99.90;;;18.59;96.86;100184.06;5034712;28;20207;-77
2023/08/26 05:42:23;;;;;;;38.20;32.37;;;19.00;99.90;;;18.59;96.46;100178.66;5034619;28;20222;-77
2023/08/26 05:44:56;;;;;;;41.03;33.70;;;19.10;99.90;;;18.61;95.98;100179.25;5034351;28;20241;-77
2023/08/26 05:47:28;;;;;;;41.03;32.93;;;19.00;99.90;;;18.62;96.31;100190.91;5034341;28;20313;-77
2023/08/26 05:50:01;;;;;;;38.10;33.27;;;19.10;99.90;;;18.65;96.62;100183.16;5034530;28;20205;-77
2023/08/26 05:52:33;;;;;;;39.60;32.53;;;19.10;99.90;;;18.70;96.29;100186.00;5034115;28;20286;-77
2023/08/26 05:55:05;;;;;;;38.00;31.77;;;19.10;99.90;;;18.74;95.86;100195.34;5034242;28;20265;-77
2023/08/26 05:57:37;;;;;;;38.00;32.17;;;19.20;99.90;;;18.74;95.29;100206.19;5034373;28;20238;-77
2023/08/26 06:00:10;;;;;;;34.57;27.83;;;19.20;99.90;;;18.79;95.38;100204.69;5034337;28;20191;-77
2023/08/26 06:02:42;;;;;;;34.93;31.13;;;19.20;99.90;;;18.77;94.43;100212.25;5034318;28;20188;-77
2023/08/26 06:05:14;;;;;;;34.33;29.73;;;19.20;99.90;;;18.80;94.81;100204.50;5034221;28;20234;-77
2023/08/26 06:07:46;;;;;;;35.73;31.47;;;19.30;99.90;;;18.81;94.25;100206.13;5034173;28;20270;-77
2023/08/26 06:10:18;;;;;;;33.20;28.80;;;19.30;99.90;;;18.84;93.29;100210.25;5033956;28;20707;-76
2023/08/26 06:12:50;;;;;;;32.27;28.97;;;19.30;99.90;;;18.83;92.94;100204.03;5034212;28;20186;-77
2023/08/26 06:15:25;;;;;;;32.67;27.30;;;19.40;99.90;;;18.84;92.33;100202.13;5034202;28;20245;-76
2023/08/26 06:17:56;;;;;;;30.00;26.47;;;19.40;99.90;;;18.84;91.42;100208.38;5034305;28;20194;-76
2023/08/26 06:20:29;;;;;;;30.20;27.00;;;19.30;99.90;;;18.87;91.50;100209.84;5034417;28;20202;-77
2023/08/26 06:23:02;;;;;;;29.30;26.00;;;19.30;99.90;;;18.87;91.15;100215.25;5049629;28;20230;-75
2023/08/26 06:25:34;;;;;;;30.50;26.23;;;19.30;99.90;;;18.85;90.29;100220.06;5050652;28;20536;-76
2023/08/26 06:28:07;;;;;;;29.73;26.40;;;19.30;99.90;;;18.90;90.76;100217.50;5038923;28;20219;-76
2023/08/26 06:30:40;;;;;;;25.77;22.40;;;19.30;99.90;;;18.96;90.17;100213.88;5034143;28;20279;-76
2023/08/26 06:33:12;;;;;;;27.00;23.23;;;19.40;99.90;;;18.99;88.34;100218.84;5033638;28;20226;-76
2023/08/26 06:35:48;;;;;;;27.77;23.37;;;19.50;99.90;;;19.04;87.86;100221.72;5033462;28;20257;-76
2023/08/26 06:38:20;;;;;;;24.17;21.60;;;19.50;99.90;;;19.06;86.90;100227.75;5033453;28;20708;-76
2023/08/26 06:40:58;;;;;;;25.47;22.27;;;19.50;99.90;;;19.04;86.93;100227.16;5033663;28;20230;-76
2023/08/26 06:43:30;;;;;;;24.00;21.33;;;19.50;99.90;;;19.07;87.18;100227.53;5033541;28;20804;-76
2023/08/26 06:46:04;;;;;;;27.63;21.07;;;19.50;99.90;;;19.09;86.48;100236.25;5033476;28;20234;-76
2023/08/26 06:48:36;;;;;;;23.63;21.10;;;19.70;99.90;;;19.10;85.65;100228.94;5033627;28;20198;-76
2023/08/26 06:51:08;;;;;;;25.67;20.43;;;19.50;99.90;;;19.14;86.05;100233.66;5033239;28;20558;-76
2023/08/26 06:53:40;;;;;;;23.90;19.87;;;19.60;99.90;;;19.19;86.72;100233.00;5033465;28;20262;-76
2023/08/26 06:56:12;;;;;;;25.20;21.90;;;19.60;99.90;;;19.19;84.52;100246.56;5033488;28;20313;-76
2023/08/26 06:58:44;;;;;;;25.33;20.50;;;19.60;99.90;;;19.20;84.36;100249.06;5033470;28;20273;-76
2023/08/26 07:01:17;;;;;;;23.10;20.17;;;19.60;99.90;;;19.17;83.77;100240.53;5033424;28;20261;-76
2023/08/26 07:03:49;;;;;;;23.97;20.40;;;19.60;99.90;;;19.17;83.96;100259.53;5033360;28;20634;-76
2023/08/26 07:06:23;;;;;;;23.33;20.57;;;19.60;99.90;;;19.14;83.24;100246.44;5033412;28;20183;-76
2023/08/26 07:08:55;;;;;;;21.70;18.67;;;19.60;99.90;;;19.16;82.03;100252.44;5033074;28;20190;-76
2023/08/26 07:11:27;;;;;;;23.23;19.43;;;19.60;99.90;;;19.09;80.43;100251.69;5033324;28;20282;-76
2023/08/26 07:14:00;;;;;;;19.73;17.40;;;19.60;99.90;;;19.14;80.97;100251.84;5033289;28;20309;-76
2023/08/26 07:16:33;;;;;;;23.07;19.27;;;19.60;99.90;;;19.19;79.68;100269.09;5033281;28;20261;-76
2023/08/26 07:19:08;;;;;;;19.53;12.60;;;19.60;99.90;;;19.11;74.15;100265.88;5033190;28;20278;-76
2023/08/26 07:21:40;;;;;;;7.97;5.57;;;19.60;99.90;;;18.95;65.41;100289.00;5033212;28;20273;-76
2023/08/26 07:24:12;;;;;;;7.73;3.10;;;19.40;99.90;;;18.75;59.53;100299.25;5032841;28;20708;-77
2023/08/26 07:26:44;;;;;;;4.67;2.20;;;19.20;99.00;;;18.62;56.16;100293.94;5034030;28;20191;-77
2023/08/26 07:29:16;;;;;;;3.80;1.97;;;19.10;96.90;;;18.47;57.00;100291.53;5033179;28;20198;-77
2023/08/26 07:31:49;;;;;;;3.20;1.73;;;18.90;97.20;;;18.37;57.19;100290.38;5033199;28;20198;-77
2023/08/26 07:34:21;;;;;;;5.43;2.33;;;18.80;97.20;;;18.44;59.06;100302.84;5033156;28;20246;-77
2023/08/26 07:36:53;;;;;;;4.67;2.10;;;18.80;98.50;;;18.32;56.30;100307.34;5033032;28;20210;-77
2023/08/26 07:39:25;;;;;;;4.87;2.67;;;18.80;96.70;;;18.40;57.70;100320.59;5033247;28;20235;-77
2023/08/26 07:41:57;;;;;;;3.67;1.80;;;18.80;97.40;;;18.44;57.53;100324.53;5036954;28;20650;-77
2023/08/26 07:44:29;;;;;;;3.53;1.83;;;18.90;97.00;;;18.48;55.53;100324.91;5037187;28;20281;-77
2023/08/26 07:47:02;;;;;;;5.40;1.87;;;18.90;96.10;;;18.51;56.55;100327.22;5036699;28;20211;-77
2023/08/26 07:49:34;;;;;;;2.33;1.60;;;19.00;97.00;;;18.59;57.29;100326.94;5036785;28;20191;-76
2023/08/26 07:52:06;;;;;;;2.77;1.70;;;19.00;96.80;;;18.57;55.62;100342.56;5036671;28;20293;-76
2023/08/26 07:54:38;;;;;;;4.73;1.90;;;19.00;95.90;;;18.56;56.96;100344.44;5036638;28;20652;-76
2023/08/26 07:57:10;;;;;;;5.20;1.80;;;19.00;96.20;;;18.53;56.40;100346.78;5036297;28;20211;-76
2023/08/26 07:59:42;;;;;;;1.90;1.70;;;19.00;96.30;;;18.47;55.02;100356.59;5036627;28;20187;-76
2023/08/26 08:02:15;;;;;;;4.03;1.80;;;18.90;95.30;;;18.47;56.99;100351.19;5036578;28;20273;-76
2023/08/26 08:04:48;;;;;;;4.03;1.63;;;18.90;96.70;;;18.44;55.12;100361.63;5036164;28;20601;-76
2023/08/26 08:07:20;;;;;;;3.33;1.70;;;18.90;95.30;;;18.47;55.10;100348.47;5036249;28;20637;-76
2023/08/26 08:09:53;;;;;;;2.43;1.63;;;18.90;95.20;;;18.53;56.59;100350.31;5036491;28;20282;-76
2023/08/26 08:12:25;;;;;;;1.73;1.40;;;19.00;96.10;;;18.57;55.72;100356.97;5036420;28;20265;-76
2023/08/26 08:14:57;;;;;;;8.87;1.83;;;19.00;95.30;;;18.54;53.72;100357.41;5036270;28;20316;-76
2023/08/26 08:17:30;;;;;;;4.00;1.70;;;19.00;94.30;;;18.59;53.75;100354.88;5035930;28;20254;-76
2023/08/26 08:20:03;;;;;;;4.27;2.03;;;19.10;94.40;;;18.59;52.36;100356.75;5035893;28;20663;-76
2023/08/26 08:22:43;;;;;;;3.73;1.57;;;19.00;93.20;;;18.66;54.76;100366.47;5035842;28;20648;-68
2023/08/26 08:25:15;;;;;;;3.30;1.50;;;19.10;95.10;;;18.67;52.41;100357.28;5035854;28;20699;-71
2023/08/26 08:27:47;;;;;;;3.67;1.50;;;19.10;93.30;;;18.68;52.95;100364.38;5036329;28;20221;-72
2023/08/26 08:30:19;;;;;;;4.13;1.40;;;19.10;93.40;;;18.73;53.06;100356.41;5036021;28;20241;-72
2023/08/26 08:32:52;;;;;;;3.10;1.30;;;19.20;93.70;;;18.74;52.64;100358.06;5035901;28;20286;-72
2023/08/26 08:35:24;;;;;;;3.07;1.47;;;19.20;93.30;;;18.74;53.85;100357.22;5035625;28;20649;-72
2023/08/26 08:37:56;;;;;;;2.17;1.60;;;19.20;94.20;;;18.73;52.04;100353.69;5035781;28;20230;-72
2023/08/26 08:40:28;;;;;;;3.43;1.50;;;19.20;93.00;;;18.78;53.52;100346.78;5035898;28;20195;-72
2023/08/26 08:43:03;;;;;;;4.10;1.60;;;19.20;93.70;;;18.85;53.54;100358.38;5035806;28;20198;-72
2023/08/26 08:45:39;;;;;;;5.33;1.77;;;19.30;93.70;;;18.92;52.61;100365.41;5035367;28;20695;-72
2023/08/26 08:48:13;;;;;;;3.47;1.40;;;19.40;93.30;;;18.92;52.09;100353.72;5035732;28;20187;-72
2023/08/26 08:50:45;;;;;;;2.37;1.40;;;19.40;92.60;;;18.93;50.48;100360.81;5035892;28;20233;-72
2023/08/26 08:53:23;;;;;;;3.77;1.30;;;19.40;91.70;;;18.96;52.08;100360.38;5035000;28;20222;-72
2023/08/26 08:55:56;;;;;;;4.00;1.80;;;19.40;92.40;;;18.94;51.56;100363.28;5035581;28;20297;-72
2023/08/26 08:58:29;;;;;;;2.30;1.40;;;19.50;92.20;;;19.05;53.62;100359.03;5035188;28;20276;-72
2023/08/26 09:01:04;;;;;;;2.47;1.30;;;19.50;93.40;;;19.14;53.57;100360.41;5035480;28;20197;-72
2023/08/26 09:03:38;;;;;;;3.23;1.50;;;19.60;93.30;;;19.16;51.57;100361.00;5035022;28;20711;-72
2023/08/26 09:06:10;;;;;;;2.50;1.40;;;19.60;92.20;;;19.23;53.54;100368.03;5035032;28;20249;-72
2023/08/26 09:08:47;;;;;;;3.87;1.60;;;19.70;93.30;;;19.20;50.96;100375.78;5035368;28;20771;-72
2023/08/26 09:11:18;;;;;;;2.30;1.40;;;19.70;91.70;;;19.28;51.72;100383.59;5035274;28;20191;-72
2023/08/26 09:13:50;;;;;;;6.83;1.97;;;19.70;92.20;;;19.35;51.58;100384.38;5035094;28;20313;-72
2023/08/26 09:16:37;;;;;;;5.73;1.77;;;19.80;92.00;;;19.42;52.35;100387.88;5035172;28;20195;-72
2023/08/26 09:19:13;;;;;;;4.40;1.50;;;19.90;92.30;;;19.53;52.19;100389.00;5034976;28;20254;-72
2023/08/26 09:21:46;;;;;;;4.67;1.60;;;20.10;92.60;;;19.61;52.63;100392.25;5034700;28;20195;-72
2023/08/26 09:24:20;;;;;;;3.10;1.60;;;20.10;92.50;;;19.53;51.37;100406.13;5034965;28;20229;-72
2023/08/26 09:27:02;;;;;;;6.63;1.77;;;20.10;91.60;;;19.56;51.01;100408.38;5034987;28;20187;-72
2023/08/26 09:29:38;;;;;;;2.90;1.30;;;20.00;91.60;;;19.58;51.41;100403.56;5034889;28;20199;-72
2023/08/26 09:32:11;;;;;;;5.07;1.90;;;20.00;91.70;;;19.64;52.71;100402.66;5034854;28;20272;-67
2023/08/26 09:34:44;;;;;;;2.83;1.60;;;20.20;92.60;;;19.54;51.83;100407.78;5034725;28;20227;-77
2023/08/26 09:37:17;;;;;;;4.57;1.40;;;20.00;92.00;;;19.56;51.38;100400.25;5034737;28;20191;-77
2023/08/26 09:39:49;;;;;;;3.40;1.43;;;20.10;91.70;;;19.62;51.27;100403.94;5034400;28;20195;-77
2023/08/26 09:42:22;;;;;;;5.43;2.03;;;20.10;91.60;;;19.75;53.33;100403.78;5034668;28;20226;-77
2023/08/26 09:44:57;;;;;;;4.63;1.50;;;20.20;93.10;;;19.67;49.81;100417.66;5034222;28;20666;-77
2023/08/26 09:47:36;;;;;;;3.80;1.23;;;20.10;90.40;;;19.73;50.11;100420.28;5034290;28;20244;-77
2023/08/26 09:50:11;;;;;;;4.00;1.60;;;20.20;90.80;;;19.70;49.12;100428.91;5034525;28;20645;-77
2023/08/26 09:52:47;;;;;;;6.17;1.70;;;20.10;90.00;;;19.68;49.73;100428.31;5034489;28;20226;-77
2023/08/26 09:55:20;;;;;;;3.70;1.70;;;20.20;90.80;;;19.70;48.98;100423.47;5034415;28;20191;-77
2023/08/26 09:57:53;;;;;;;4.13;1.50;;;20.20;90.30;;;19.82;49.60;100425.44;5034668;28;20210;-77
2023/08/26 10:00:26;;;;;;;3.03;1.70;;;20.30;90.60;;;19.88;49.73;100414.47;5034386;28;20282;-77
2023/08/26 10:03:06;;;;;;;3.67;1.53;;;20.40;90.60;;;19.84;49.24;100429.56;5033400;28;20191;-77
2023/08/26 10:05:42;;;;;;;5.13;1.60;;;20.30;90.00;;;19.75;48.93;100430.94;5033896;28;20612;-77
2023/08/26 10:08:14;;;;;;;4.17;2.00;;;20.30;90.00;;;19.78;49.24;100425.06;5034010;28;20218;-77
2023/08/26 10:10:55;;;;;;;3.80;1.60;;;20.20;90.00;;;19.79;51.62;100431.31;5033884;28;20286;-77
2023/08/26 10:13:28;;;;;;;3.07;1.83;;;20.20;91.50;;;19.93;51.13;100414.59;5034110;28;20317;-77
2023/08/26 10:16:06;;;;;;;3.70;1.70;;;20.40;91.30;;;19.92;49.78;100421.13;5033827;28;20653;-77
2023/08/26 10:18:47;;;;;;;4.07;1.77;;;20.40;90.30;;;19.95;49.52;100419.81;5033654;28;20691;-77
2023/08/26 10:21:20;;;;;;;4.27;1.50;;;20.40;90.00;;;20.10;49.96;100414.81;5034131;28;20366;-77
2023/08/26 10:23:52;;;;;;;3.40;1.57;;;20.50;90.30;;;20.13;48.87;100411.63;5033941;28;20245;-77
2023/08/26 10:26:26;;;;;;;1.93;1.33;;;20.60;90.00;;;20.16;49.16;100427.47;5033966;28;20214;-77
2023/08/26 10:28:59;;;;;;;3.53;1.93;;;20.60;90.10;;;20.23;50.84;100433.66;5033893;28;20282;-66